Time;durP1;ratioP1;P1;durP2;ratioP2;P2;SDS_P1;SDS_P2;PMS_P1;PMS_P2;Temp;Humidity;BMP_temperature;BMP_pressure;BME280_temperature;BME280_humidity;BME280_pressure;Samples;Min_cycle;Max_cycle;Signal;HPM_P1;HPM_P2
2022/07/07 00:00:28;;;;;;;5.45;1.40;;;;;;;15.62;54.12;101119.13;4992026;28;20064;-76
2022/07/07 00:02:55;;;;;;;5.65;1.08;;;;;;;15.65;53.84;101122.47;5002612;28;20041;-76
2022/07/07 00:05:22;;;;;;;3.55;0.98;;;;;;;15.64;53.94;101120.78;4995971;28;20522;-76
2022/07/07 00:07:50;;;;;;;3.95;0.82;;;;;;;15.66;53.56;101121.50;5006827;28;20053;-75
2022/07/07 00:10:18;;;;;;;6.47;1.05;;;;;;;15.64;53.94;101110.16;5006758;28;20072;-76
2022/07/07 00:12:45;;;;;;;4.72;1.20;;;;;;;15.67;54.23;101107.28;5010443;28;20148;-75
2022/07/07 00:15:12;;;;;;;4.80;1.25;;;;;;;15.67;54.05;101099.31;4994876;28;20045;-75
2022/07/07 00:17:39;;;;;;;5.30;1.17;;;;;;;15.68;53.94;101098.38;4980308;28;20037;-74
2022/07/07 00:20:07;;;;;;;3.95;0.90;;;;;;;15.67;54.00;101094.03;5006922;28;20072;-76
2022/07/07 00:22:35;;;;;;;3.13;1.23;;;;;;;15.70;54.02;101092.94;4986530;28;20041;-77
2022/07/07 00:25:03;;;;;;;4.88;0.90;;;;;;;15.69;54.13;101089.44;4987194;28;20057;-76
2022/07/07 00:27:30;;;;;;;6.15;0.93;;;;;;;15.73;54.08;101086.56;4979318;28;20423;-77
2022/07/07 00:29:57;;;;;;;9.00;1.10;;;;;;;15.72;54.31;101092.84;4988838;28;20067;-76
2022/07/07 00:32:24;;;;;;;3.58;0.90;;;;;;;15.71;54.36;101086.66;5006608;28;20065;-76
2022/07/07 00:34:52;;;;;;;3.35;1.27;;;;;;;15.72;54.38;101083.06;5004846;28;20117;-76
2022/07/07 00:37:19;;;;;;;3.85;1.02;;;;;;;15.76;54.31;101084.53;5003866;28;20048;-76
2022/07/07 00:39:47;;;;;;;4.07;1.10;;;;;;;15.78;54.31;101068.50;5002462;28;20132;-76
2022/07/07 00:42:15;;;;;;;3.15;1.00;;;;;;;15.79;54.19;101078.13;4988401;28;20053;-76
2022/07/07 00:44:43;;;;;;;3.25;0.95;;;;;;;15.79;54.13;101063.06;4990158;28;20456;-75
2022/07/07 00:47:11;;;;;;;2.35;0.68;;;;;;;15.81;54.33;101063.81;4990876;28;20046;-75
2022/07/07 00:49:40;;;;;;;3.65;1.00;;;;;;;15.82;54.35;101062.84;5003692;28;20042;-75
2022/07/07 00:52:08;;;;;;;11.40;1.00;;;;;;;15.80;54.63;101062.09;4980871;28;20056;-76
2022/07/07 00:54:35;;;;;;;4.13;1.00;;;;;;;15.82;54.36;101069.97;5013329;28;20052;-75
2022/07/07 00:57:05;;;;;;;4.38;0.90;;;;;;;15.82;54.62;101067.31;4989472;28;20140;-76
2022/07/07 00:59:57;;;;;;;6.25;1.20;;;;;;;15.81;54.70;101070.94;4997983;28;20053;-76
2022/07/07 01:02:29;;;;;;;4.03;1.25;;;;;;;15.86;54.90;101072.28;5003422;28;20661;-76
2022/07/07 01:05:03;;;;;;;4.05;0.82;;;;;;;15.93;54.71;101072.66;4980252;28;20075;-77
2022/07/07 01:07:31;;;;;;;2.45;0.80;;;;;;;15.93;54.89;101075.31;4992212;28;20069;-75
2022/07/07 01:09:59;;;;;;;2.88;0.77;;;;;;;15.94;55.13;101066.41;5032204;28;20446;-76
2022/07/07 01:12:33;;;;;;;3.50;1.02;;;;;;;15.93;55.20;101067.34;5012913;28;20053;-77
2022/07/07 01:15:01;;;;;;;5.90;1.02;;;;;;;15.93;55.13;101057.56;5014309;28;20148;-77
2022/07/07 01:17:28;;;;;;;4.75;0.90;;;;;;;15.91;56.14;101071.94;4999474;28;20055;-77
2022/07/07 01:19:55;;;;;;;8.48;1.83;;;;;;;15.83;57.26;101067.19;4993444;28;20201;-76
2022/07/07 01:22:24;;;;;;;2.58;0.70;;;;;;;15.78;58.67;101071.13;5000044;28;20057;-77
2022/07/07 01:24:51;;;;;;;5.60;1.13;;;;;;;15.67;59.96;101058.66;5010353;28;20519;-77
2022/07/07 01:27:20;;;;;;;3.65;1.15;;;;;;;15.56;61.17;101070.00;5014304;28;20115;-77
2022/07/07 01:29:53;;;;;;;3.40;1.00;;;;;;;15.56;62.15;101071.81;5014252;28;20143;-76
2022/07/07 01:32:21;;;;;;;3.78;1.00;;;;;;;15.51;62.79;101068.66;5014852;28;20072;-75
2022/07/07 01:34:49;;;;;;;11.13;1.48;;;;;;;15.43;63.82;101064.75;4998266;28;20057;-76
2022/07/07 01:37:17;;;;;;;6.85;0.90;;;;;;;15.36;65.23;101060.88;4988484;28;20049;-76
2022/07/07 01:39:44;;;;;;;4.13;1.15;;;;;;;15.23;66.58;101062.69;4994390;28;20169;-76
2022/07/07 01:42:13;;;;;;;5.20;0.77;;;;;;;15.12;67.86;101062.59;4997041;28;20053;-75
2022/07/07 01:44:41;;;;;;;4.65;0.93;;;;;;;15.11;68.54;101055.59;5018014;28;20057;-75
2022/07/07 01:47:09;;;;;;;2.90;1.02;;;;;;;15.02;70.63;101065.06;4998597;28;20053;-76
2022/07/07 01:49:37;;;;;;;3.92;0.95;;;;;;;14.90;71.89;101065.91;4993418;28;20049;-76
2022/07/07 01:52:05;;;;;;;2.67;1.02;;;;;;;14.71;73.56;101058.41;4980776;28;20063;-75
2022/07/07 01:54:33;;;;;;;4.40;1.33;;;;;;;14.61;74.62;101055.53;5008285;28;20053;-75
2022/07/07 01:57:01;;;;;;;9.93;1.27;;;;;;;14.50;75.35;101050.16;5002624;28;20041;-76
2022/07/07 01:59:29;;;;;;;3.10;0.98;;;;;;;14.46;76.73;101045.13;4988171;28;20056;-76
2022/07/07 02:01:56;;;;;;;2.35;0.80;;;;;;;14.49;77.33;101042.28;4985074;28;20055;-76
2022/07/07 02:04:23;;;;;;;4.43;1.15;;;;;;;14.44;78.72;101051.34;5012329;28;20057;-76
2022/07/07 02:06:51;;;;;;;8.07;1.50;;;;;;;14.40;79.91;101047.22;4992967;28;20049;-77
2022/07/07 02:09:19;;;;;;;1.77;0.70;;;;;;;14.30;79.95;101042.66;5014793;28;20583;-76
2022/07/07 02:11:46;;;;;;;4.18;0.88;;;;;;;14.24;81.00;101043.94;5021840;28;20050;-75
2022/07/07 02:14:14;;;;;;;5.47;0.95;;;;;;;14.21;82.70;101049.44;4993973;28;20056;-77
2022/07/07 02:16:41;;;;;;;7.38;1.25;;;;;;;14.13;83.27;101054.38;4990422;28;20042;-75
2022/07/07 02:19:09;;;;;;;6.43;1.33;;;;;;;14.01;84.79;101047.28;5010515;28;20059;-75
2022/07/07 02:21:36;;;;;;;4.65;1.10;;;;;;;13.87;86.64;101048.19;5011495;28;20064;-76
2022/07/07 02:24:04;;;;;;;2.72;0.90;;;;;;;13.60;88.89;101041.13;5025638;28;20119;-75
2022/07/07 02:26:33;;;;;;;4.57;1.27;;;;;;;13.67;88.33;101046.84;5005639;28;20140;-76
2022/07/07 02:29:01;;;;;;;4.30;1.02;;;;;;;13.72;87.90;101034.16;5034421;28;20557;-75
2022/07/07 02:31:28;;;;;;;1.92;1.08;;;;;;;13.76;88.04;101034.81;4992796;28;20135;-76
2022/07/07 02:33:56;;;;;;;5.60;1.20;;;;;;;13.77;88.66;101034.69;5025721;28;20643;-75
2022/07/07 02:36:23;;;;;;;2.80;1.02;;;;;;;13.62;91.44;101030.41;5010307;28;20048;-77
2022/07/07 02:38:51;;;;;;;5.90;1.48;;;;;;;13.61;92.55;101026.09;4987466;28;20047;-77
2022/07/07 02:41:19;;;;;;;2.65;1.15;;;;;;;13.60;92.00;101016.47;4988945;28;20064;-76
2022/07/07 02:43:47;;;;;;;2.40;1.13;;;;;;;13.63;92.64;101018.88;5002765;28;20052;-77
2022/07/07 02:46:14;;;;;;;3.50;1.40;;;;;;;13.61;93.11;101016.34;4986672;28;20148;-76
2022/07/07 02:48:42;;;;;;;2.47;1.00;;;;;;;13.57;93.85;101017.50;5007860;28;20120;-77
2022/07/07 02:51:09;;;;;;;4.50;1.38;;;;;;;13.50;95.03;101012.69;5001824;28;20054;-76
2022/07/07 02:53:36;;;;;;;4.25;1.52;;;;;;;13.49;95.27;101009.19;4979313;28;20060;-77
2022/07/07 02:56:04;;;;;;;4.97;1.95;;;;;;;13.48;95.81;101014.59;5022491;28;20144;-79
2022/07/07 02:58:32;;;;;;;3.65;1.25;;;;;;;13.43;97.33;101005.16;4986838;28;20416;-78
2022/07/07 03:00:59;;;;;;;3.85;1.27;;;;;;;13.44;97.07;101000.72;4985435;28;20073;-77
2022/07/07 03:03:27;;;;;;;3.20;1.60;;;;;;;13.46;97.32;101005.91;4990275;28;20512;-77
2022/07/07 03:05:55;;;;;;;3.72;1.40;;;;;;;13.50;97.58;101010.88;5002464;28;20049;-78
2022/07/07 03:08:22;;;;;;;3.60;1.88;;;;;;;13.49;98.46;101005.72;4993887;28;20057;-78
2022/07/07 03:10:55;;;;;;;3.38;1.48;;;;;;;13.49;99.21;101003.06;4990784;28;20532;-78
2022/07/07 03:13:22;;;;;;;4.10;1.70;;;;;;;13.48;99.19;100993.44;5009746;28;20088;-77
2022/07/07 03:15:50;;;;;;;7.40;1.92;;;;;;;13.47;99.89;100995.25;5002873;28;20487;-78
2022/07/07 03:18:17;;;;;;;6.43;1.80;;;;;;;13.45;99.79;100988.34;5005333;28;20393;-77
2022/07/07 03:20:46;;;;;;;3.28;1.35;;;;;;;13.40;100.00;100989.50;4987608;28;20037;-77
2022/07/07 03:23:13;;;;;;;4.72;1.30;;;;;;;13.39;100.00;100979.03;4990540;28;20041;-77
2022/07/07 03:25:40;;;;;;;4.95;1.65;;;;;;;13.39;100.00;100974.56;4995402;28;20060;-78
2022/07/07 03:28:08;;;;;;;13.32;1.83;;;;;;;13.36;100.00;100973.91;4972198;28;20057;-77
2022/07/07 03:30:35;;;;;;;4.82;2.25;;;;;;;13.35;100.00;100974.88;5007593;28;20055;-78
2022/07/07 03:33:02;;;;;;;5.82;2.13;;;;;;;13.36;100.00;100969.47;5006372;28;20053;-76
2022/07/07 03:35:30;;;;;;;5.78;2.30;;;;;;;13.36;100.00;100969.47;5008430;28;20183;-77
2022/07/07 03:37:57;;;;;;;6.38;2.38;;;;;;;13.38;100.00;100964.94;5012056;28;20132;-77
2022/07/07 03:40:24;;;;;;;8.48;2.45;;;;;;;13.34;100.00;100967.91;5007062;28;20053;-77
2022/07/07 03:42:51;;;;;;;10.70;2.30;;;;;;;13.30;100.00;100961.09;5007866;28;20049;-77
2022/07/07 03:45:19;;;;;;;5.05;1.67;;;;;;;13.32;100.00;100959.19;4976345;28;20060;-77
2022/07/07 03:47:46;;;;;;;7.95;2.42;;;;;;;13.32;100.00;100965.34;4999905;28;20048;-78
2022/07/07 03:50:13;;;;;;;3.55;1.75;;;;;;;13.33;100.00;100966.22;5006505;28;20042;-77
2022/07/07 03:52:40;;;;;;;4.63;1.85;;;;;;;13.28;100.00;100977.06;4991871;28;20144;-76
2022/07/07 03:55:08;;;;;;;7.95;2.30;;;;;;;13.20;100.00;100967.91;5018959;28;20048;-76
2022/07/07 03:57:38;;;;;;;7.15;2.10;;;;;;;13.14;100.00;100967.34;4995685;28;20045;-77
2022/07/07 04:00:05;;;;;;;5.80;1.98;;;;;;;13.13;100.00;100960.34;5003049;28;20558;-77
2022/07/07 04:02:33;;;;;;;13.85;1.92;;;;;;;13.08;100.00;100962.44;5025462;28;20060;-78
2022/07/07 04:05:00;;;;;;;8.13;2.08;;;;;;;13.11;100.00;100966.72;5016798;28;20041;-77
2022/07/07 04:07:27;;;;;;;3.65;1.50;;;;;;;13.15;100.00;100965.56;5001142;28;20385;-77
2022/07/07 04:09:55;;;;;;;4.78;1.70;;;;;;;12.98;100.00;100964.00;5006277;28;20163;-77
2022/07/07 04:12:22;;;;;;;6.10;2.03;;;;;;;13.03;100.00;100959.25;5020034;28;20049;-76
2022/07/07 04:14:49;;;;;;;5.05;2.05;;;;;;;13.01;100.00;100947.06;4986015;28;20044;-77
2022/07/07 04:17:16;;;;;;;4.97;2.28;;;;;;;12.93;100.00;100960.78;4991888;28;20192;-77
2022/07/07 04:19:44;;;;;;;4.05;1.98;;;;;;;12.92;100.00;100957.31;5003457;28;20045;-77
2022/07/07 04:22:11;;;;;;;4.85;2.22;;;;;;;12.90;100.00;100939.84;4987445;28;20057;-78
2022/07/07 04:24:38;;;;;;;5.72;2.22;;;;;;;12.90;100.00;100930.13;4989700;28;20164;-77
2022/07/07 04:27:08;;;;;;;5.55;2.00;;;;;;;12.85;100.00;100941.94;5007602;28;20053;-77
2022/07/07 04:29:36;;;;;;;6.32;2.25;;;;;;;12.87;100.00;100934.75;4992947;28;20406;-77
2022/07/07 04:32:04;;;;;;;4.03;2.20;;;;;;;12.86;100.00;100919.84;5019402;28;20046;-78
2022/07/07 04:34:31;;;;;;;5.63;2.80;;;;;;;12.88;100.00;100920.59;5008859;28;20050;-78
2022/07/07 04:36:58;;;;;;;9.73;3.13;;;;;;;12.77;100.00;100910.69;5017988;28;20068;-78
2022/07/07 04:39:26;;;;;;;6.88;2.75;;;;;;;12.83;100.00;100909.47;4983894;28;20054;-76
2022/07/07 04:41:53;;;;;;;7.03;2.50;;;;;;;12.85;100.00;100903.16;5005578;28;20088;-78
2022/07/07 04:44:20;;;;;;;4.80;2.10;;;;;;;12.85;100.00;100904.94;4986799;28;20053;-78
2022/07/07 04:46:47;;;;;;;5.05;3.08;;;;;;;12.88;100.00;100905.59;5002799;28;20053;-77
2022/07/07 04:49:15;;;;;;;6.82;2.40;;;;;;;12.87;100.00;100901.22;5015576;28;20415;-76
2022/07/07 04:51:47;;;;;;;6.70;2.70;;;;;;;12.87;100.00;100903.03;4999933;28;20559;-76
2022/07/07 04:54:15;;;;;;;3.35;2.47;;;;;;;12.87;100.00;100893.31;5006958;28;20049;-77
2022/07/07 04:56:42;;;;;;;5.53;2.70;;;;;;;12.86;100.00;100888.97;4976617;28;20049;-78
2022/07/07 04:59:09;;;;;;;9.13;2.50;;;;;;;12.91;100.00;100891.31;5027186;28;20104;-76
2022/07/07 05:01:36;;;;;;;5.38;3.05;;;;;;;12.92;100.00;100895.66;5002007;28;20057;-77
2022/07/07 05:04:04;;;;;;;6.85;3.35;;;;;;;12.91;100.00;100886.03;4989629;28;20056;-76
2022/07/07 05:06:31;;;;;;;7.00;3.20;;;;;;;12.96;100.00;100883.09;4989428;28;20049;-77
2022/07/07 05:08:59;;;;;;;3.67;2.85;;;;;;;12.99;100.00;100891.69;5004229;28;20128;-77
2022/07/07 05:11:26;;;;;;;8.93;2.60;;;;;;;13.00;100.00;100885.44;4994786;28;20048;-77
2022/07/07 05:13:54;;;;;;;5.40;3.00;;;;;;;13.00;100.00;100890.72;5001730;28;20064;-78
2022/07/07 05:16:21;;;;;;;4.78;2.88;;;;;;;13.02;100.00;100888.00;5003017;28;20061;-78
2022/07/07 05:18:49;;;;;;;8.00;3.45;;;;;;;13.05;100.00;100888.63;5003817;28;20079;-77
2022/07/07 05:21:16;;;;;;;5.38;3.22;;;;;;;13.03;100.00;100885.25;5005543;28;20056;-77
2022/07/07 05:23:44;;;;;;;4.97;2.75;;;;;;;13.08;100.00;100879.66;5003833;28;20144;-78
2022/07/07 05:26:12;;;;;;;5.80;2.92;;;;;;;13.09;100.00;100871.63;5002314;28;20144;-78
2022/07/07 05:28:42;;;;;;;4.00;2.88;;;;;;;13.12;100.00;100881.16;4990364;28;20580;-77
2022/07/07 05:31:10;;;;;;;4.45;2.55;;;;;;;13.06;100.00;100887.72;5008382;28;20413;-76
2022/07/07 05:33:37;;;;;;;7.05;3.30;;;;;;;13.08;100.00;100884.94;4982641;28;20037;-77
2022/07/07 05:36:07;;;;;;;7.75;2.92;;;;;;;13.07;100.00;100880.63;5000634;28;20156;-77
2022/07/07 05:38:34;;;;;;;7.88;3.50;;;;;;;13.07;100.00;100876.19;4991709;28;20050;-78
2022/07/07 05:41:02;;;;;;;5.57;2.97;;;;;;;13.10;100.00;100870.72;5009379;28;20538;-76
2022/07/07 05:43:29;;;;;;;4.95;2.70;;;;;;;13.12;100.00;100879.38;4992514;28;20046;-77
2022/07/07 05:45:57;;;;;;;3.92;2.53;;;;;;;13.12;100.00;100868.78;5014243;28;20574;-78
2022/07/07 05:48:24;;;;;;;5.28;3.35;;;;;;;13.12;100.00;100876.72;5030514;28;20648;-78
2022/07/07 05:50:51;;;;;;;5.63;2.70;;;;;;;13.13;100.00;100874.94;5005946;28;20049;-75
2022/07/07 05:53:19;;;;;;;4.25;2.58;;;;;;;13.10;100.00;100877.75;5000631;28;20666;-76
2022/07/07 05:55:46;;;;;;;4.75;2.70;;;;;;;13.07;100.00;100872.69;5012392;28;20058;-76
2022/07/07 05:58:14;;;;;;;6.85;2.70;;;;;;;13.11;100.00;100882.97;4991751;28;20046;-77
2022/07/07 06:00:44;;;;;;;4.32;2.30;;;;;;;13.18;100.00;100880.75;4994656;28;20080;-76
2022/07/07 06:03:12;;;;;;;7.90;2.65;;;;;;;13.15;100.00;100875.69;5011534;28;20043;-76
2022/07/07 06:05:41;;;;;;;9.32;2.92;;;;;;;13.16;100.00;100875.56;4976727;28;20041;-75
2022/07/07 06:08:09;;;;;;;4.57;2.97;;;;;;;13.15;100.00;100873.03;5009840;28;20052;-77
2022/07/07 06:10:37;;;;;;;5.35;2.30;;;;;;;13.18;100.00;100871.03;5002487;28;20692;-77
2022/07/07 06:13:04;;;;;;;9.07;2.83;;;;;;;13.17;100.00;100873.78;5008060;28;20617;-77
2022/07/07 06:15:35;;;;;;;3.30;3.00;;;;;;;13.12;100.00;100875.88;4997362;28;20057;-77
2022/07/07 06:18:03;;;;;;;5.93;3.47;;;;;;;13.06;100.00;100877.13;4985615;28;20053;-77
2022/07/07 06:20:35;;;;;;;4.50;2.88;;;;;;;13.05;100.00;100877.22;5004090;28;20068;-77
2022/07/07 06:23:02;;;;;;;6.15;3.50;;;;;;;13.06;100.00;100869.22;4985841;28;20080;-77
2022/07/07 06:25:30;;;;;;;6.35;3.88;;;;;;;13.04;100.00;100867.59;4991072;28;20133;-77
2022/07/07 06:27:57;;;;;;;6.78;3.58;;;;;;;13.10;100.00;100868.06;5006034;28;20084;-77
2022/07/07 06:30:25;;;;;;;6.43;3.35;;;;;;;13.12;100.00;100858.22;4973999;28;20049;-77
2022/07/07 06:32:54;;;;;;;3.80;3.40;;;;;;;13.18;100.00;100854.31;5003587;28;20955;-78
2022/07/07 06:35:24;;;;;;;5.68;3.30;;;;;;;13.22;100.00;100857.63;4989851;28;20516;-77
2022/07/07 06:37:53;;;;;;;4.80;3.22;;;;;;;13.23;100.00;100851.41;4985430;28;20057;-78
2022/07/07 06:40:21;;;;;;;4.22;3.55;;;;;;;13.25;100.00;100862.75;4995279;28;20041;-77
2022/07/07 06:42:48;;;;;;;5.25;3.75;;;;;;;13.18;100.00;100860.44;5000635;28;20068;-78
2022/07/07 06:45:16;;;;;;;4.45;3.50;;;;;;;13.18;100.00;100855.16;4974450;28;20052;-78
2022/07/07 06:47:43;;;;;;;5.75;3.58;;;;;;;13.19;100.00;100861.28;5006298;28;20444;-76
2022/07/07 06:50:11;;;;;;;4.20;3.67;;;;;;;13.20;100.00;100860.38;5003167;28;20296;-78
2022/07/07 06:52:38;;;;;;;4.43;3.50;;;;;;;13.20;100.00;100852.44;5014421;28;20041;-77
2022/07/07 06:55:06;;;;;;;7.45;3.72;;;;;;;13.27;100.00;100856.38;4982925;28;20059;-77
2022/07/07 06:57:37;;;;;;;6.55;3.53;;;;;;;13.29;100.00;100857.16;4984990;28;21036;-78
2022/07/07 07:00:06;;;;;;;4.88;3.55;;;;;;;13.29;100.00;100854.50;5005623;28;20064;-78
2022/07/07 07:02:41;;;;;;;6.22;4.10;;;;;;;13.35;100.00;100866.47;4988260;28;20056;-77
2022/07/07 07:05:08;;;;;;;6.75;3.53;;;;;;;13.35;100.00;100856.72;4991490;28;20045;-77
2022/07/07 07:07:36;;;;;;;4.55;3.08;;;;;;;13.31;100.00;100863.16;4990545;28;20111;-76
2022/07/07 07:10:03;;;;;;;6.22;4.10;;;;;;;13.36;100.00;100865.50;5006714;28;20085;-77
2022/07/07 07:12:31;;;;;;;3.72;3.42;;;;;;;13.44;100.00;100860.56;5009129;28;20052;-78
2022/07/07 07:14:58;;;;;;;6.05;3.30;;;;;;;13.50;100.00;100852.19;4991863;28;20079;-77
2022/07/07 07:17:26;;;;;;;3.70;3.20;;;;;;;13.62;100.00;100859.31;5003967;28;20056;-75
2022/07/07 07:19:53;;;;;;;4.25;3.28;;;;;;;13.64;100.00;100851.25;4987544;28;20064;-76
2022/07/07 07:22:21;;;;;;;10.05;3.10;;;;;;;13.69;100.00;100849.19;5005705;28;20059;-76
2022/07/07 07:24:48;;;;;;;4.95;2.95;;;;;;;13.70;100.00;100857.97;5000774;28;20045;-77
2022/07/07 07:27:17;;;;;;;4.07;2.92;;;;;;;13.66;100.00;100855.50;5004126;28;20061;-75
2022/07/07 07:29:44;;;;;;;3.85;2.97;;;;;;;13.70;100.00;100861.44;4985533;28;22253;-76
2022/07/07 07:32:11;;;;;;;3.25;2.72;;;;;;;13.73;100.00;100855.91;5003145;28;20500;-77
2022/07/07 07:34:38;;;;;;;2.97;2.67;;;;;;;13.64;100.00;100851.25;5000999;28;20053;-76
2022/07/07 07:37:06;;;;;;;5.60;2.83;;;;;;;13.66;100.00;100858.16;4969470;28;20057;-78
2022/07/07 07:39:35;;;;;;;3.13;2.53;;;;;;;13.63;100.00;100853.06;5015038;28;20144;-77
2022/07/07 07:42:02;;;;;;;3.10;2.80;;;;;;;13.63;100.00;100852.22;4994184;28;20045;-77
2022/07/07 07:47:16;;;;;;;4.93;3.53;;;;;;;13.68;100.00;100848.31;4997815;28;20045;-77
2022/07/07 07:49:43;;;;;;;5.28;3.03;;;;;;;13.74;100.00;100840.91;4982484;28;20128;-77
2022/07/07 07:52:11;;;;;;;2.75;2.55;;;;;;;13.82;100.00;100839.41;4984332;28;20053;-77
2022/07/07 07:54:39;;;;;;;3.63;2.75;;;;;;;13.97;100.00;100850.75;4987063;28;20057;-79
2022/07/07 07:57:06;;;;;;;4.10;2.72;;;;;;;13.94;100.00;100843.03;5002420;28;20053;-77
2022/07/07 07:59:33;;;;;;;3.40;2.58;;;;;;;13.99;100.00;100834.75;5023578;28;20057;-77
2022/07/07 08:02:01;;;;;;;3.70;2.53;;;;;;;14.07;100.00;100840.38;4969042;28;20056;-78
2022/07/07 08:04:28;;;;;;;3.13;2.83;;;;;;;14.08;100.00;100847.34;4982551;28;20116;-77
2022/07/07 08:06:55;;;;;;;2.88;2.40;;;;;;;14.16;100.00;100834.44;4982304;28;20069;-78
2022/07/07 08:09:24;;;;;;;5.75;2.50;;;;;;;14.16;100.00;100837.06;5001280;28;20133;-78
2022/07/07 08:11:51;;;;;;;3.70;2.85;;;;;;;14.10;100.00;100837.53;4993427;28;20056;-78
2022/07/07 08:14:18;;;;;;;4.47;2.70;;;;;;;14.21;100.00;100850.00;4988784;28;20050;-78
2022/07/07 08:16:46;;;;;;;2.67;2.47;;;;;;;14.23;100.00;100840.13;5018686;28;20069;-77
2022/07/07 08:19:17;;;;;;;4.85;2.97;;;;;;;14.39;100.00;100835.44;4982089;28;20049;-77
2022/07/07 08:21:48;;;;;;;4.97;2.58;;;;;;;14.56;100.00;100832.47;4989114;28;20079;-77
2022/07/07 08:24:15;;;;;;;2.75;2.28;;;;;;;14.68;100.00;100841.34;4992464;28;20056;-76
2022/07/07 08:26:43;;;;;;;3.22;2.38;;;;;;;14.76;100.00;100838.94;5003136;28;20124;-77
2022/07/07 08:29:11;;;;;;;3.05;2.22;;;;;;;14.85;100.00;100837.44;5013343;28;20057;-76
2022/07/07 08:31:38;;;;;;;4.80;2.75;;;;;;;14.86;100.00;100840.00;4985369;28;20147;-76
2022/07/07 08:34:06;;;;;;;4.45;2.42;;;;;;;14.82;100.00;100840.31;5008599;28;20049;-76
2022/07/07 08:36:36;;;;;;;3.53;2.58;;;;;;;14.77;100.00;100848.63;4986611;28;20045;-77
2022/07/07 08:39:03;;;;;;;3.17;2.20;;;;;;;14.80;100.00;100837.78;4991124;28;20160;-77
2022/07/07 08:41:31;;;;;;;2.20;2.00;;;;;;;14.90;100.00;100835.28;4996452;28;20045;-78
2022/07/07 08:43:59;;;;;;;3.58;2.47;;;;;;;14.82;100.00;100838.53;5023932;28;20053;-77
2022/07/07 08:46:26;;;;;;;4.50;2.72;;;;;;;14.79;100.00;100832.59;4976314;28;20045;-78
2022/07/07 08:48:54;;;;;;;4.93;3.15;;;;;;;14.77;100.00;100838.00;4999714;28;20076;-79
2022/07/07 08:51:25;;;;;;;5.32;3.00;;;;;;;14.72;100.00;100836.63;5013695;28;20053;-77
2022/07/07 08:53:52;;;;;;;4.68;2.65;;;;;;;14.66;100.00;100849.38;5008144;28;20236;-78
2022/07/07 08:56:19;;;;;;;5.07;2.10;;;;;;;14.74;100.00;100832.09;4974345;28;20061;-76
2022/07/07 08:58:46;;;;;;;8.02;2.45;;;;;;;14.76;100.00;100833.66;4996571;28;20511;-76
2022/07/07 09:01:31;;;;;;;2.35;2.15;;;;;;;14.73;100.00;100835.69;4989512;28;20508;-76
2022/07/07 09:03:59;;;;;;;2.92;1.85;;;;;;;14.76;100.00;100822.22;5003001;28;20079;-75
2022/07/07 09:06:28;;;;;;;2.13;1.92;;;;;;;14.90;100.00;100827.34;5000965;28;20053;-76
2022/07/07 09:08:56;;;;;;;2.42;1.95;;;;;;;15.01;100.00;100824.75;5009079;28;20073;-75
2022/07/07 09:11:29;;;;;;;2.38;2.17;;;;;;;15.06;100.00;100827.91;4989260;28;20060;-77
2022/07/07 09:14:17;;;;;;;2.28;1.92;;;;;;;15.14;100.00;100822.88;4994813;28;20037;-74
2022/07/07 09:16:44;;;;;;;2.67;1.90;;;;;;;15.19;100.00;100827.84;5006053;28;20200;-74
2022/07/07 09:19:19;;;;;;;3.72;1.90;;;;;;;15.24;100.00;100823.03;5021507;28;20053;-72
2022/07/07 09:21:48;;;;;;;3.00;2.72;;;;;;;15.14;100.00;100830.84;4992335;28;20119;-73
2022/07/07 09:24:15;;;;;;;3.42;2.50;;;;;;;15.11;100.00;100832.88;5002195;28;20050;-74
2022/07/07 09:26:47;;;;;;;2.55;2.30;;;;;;;14.92;100.00;100831.56;5011305;28;20063;-74
2022/07/07 09:29:19;;;;;;;2.42;2.22;;;;;;;15.07;100.00;100836.69;4992425;28;20094;-74
2022/07/07 09:32:00;;;;;;;2.72;2.35;;;;;;;14.98;100.00;100838.22;5005371;28;20049;-73
2022/07/07 09:34:32;;;;;;;2.50;2.17;;;;;;;15.06;100.00;100833.22;5007910;28;20052;-74
2022/07/07 09:39:55;;;;;;;4.65;2.20;;;;;;;15.16;100.00;100831.56;5004827;28;20080;-75
2022/07/07 09:42:38;;;;;;;6.15;2.97;;;;;;;14.94;100.00;100839.41;5023778;28;20042;-74
2022/07/07 09:45:07;;;;;;;2.55;2.35;;;;;;;15.01;100.00;100832.72;4989762;28;20050;-74
2022/07/07 09:47:35;;;;;;;2.50;2.30;;;;;;;15.01;100.00;100837.16;5018694;28;20564;-75
2022/07/07 09:50:08;;;;;;;4.07;2.60;;;;;;;15.02;100.00;100839.69;4993599;28;20061;-76
2022/07/07 09:52:38;;;;;;;2.75;2.13;;;;;;;15.06;100.00;100832.38;4989901;28;20418;-74
2022/07/07 09:55:11;;;;;;;2.78;2.40;;;;;;;15.21;100.00;100847.13;4988468;28;20049;-74
2022/07/07 09:57:39;;;;;;;3.05;2.75;;;;;;;15.18;100.00;100842.91;4987509;28;20145;-74
2022/07/07 10:00:08;;;;;;;4.45;2.45;;;;;;;15.29;100.00;100844.75;5012063;28;20486;-74
2022/07/07 10:02:36;;;;;;;2.90;2.60;;;;;;;15.40;100.00;100838.63;5008399;28;20045;-73
2022/07/07 10:05:05;;;;;;;2.60;2.40;;;;;;;15.60;100.00;100839.78;5010854;28;20319;-74
2022/07/07 10:07:34;;;;;;;2.50;2.30;;;;;;;15.70;100.00;100851.41;4997111;28;20048;-74
2022/07/07 10:10:05;;;;;;;3.17;2.65;;;;;;;15.64;100.00;100843.91;5020613;28;20064;-73
2022/07/07 10:12:33;;;;;;;4.05;3.20;;;;;;;15.64;100.00;100842.09;4974612;28;20137;-73
2022/07/07 10:15:15;;;;;;;3.13;2.25;;;;;;;15.76;100.00;100837.66;4990524;28;20113;-74
2022/07/07 10:17:43;;;;;;;3.10;2.83;;;;;;;15.73;100.00;100845.84;5005110;28;20564;-74
2022/07/07 10:20:11;;;;;;;2.55;2.35;;;;;;;15.83;100.00;100853.97;5009963;28;20144;-73
2022/07/07 10:22:39;;;;;;;2.90;2.70;;;;;;;15.87;100.00;100853.59;4989611;28;20072;-74
2022/07/07 10:25:08;;;;;;;3.67;3.00;;;;;;;15.87;100.00;100848.28;5006399;28;20109;-74
2022/07/07 10:27:39;;;;;;;2.75;2.55;;;;;;;15.78;100.00;100864.09;4988021;28;20388;-74
2022/07/07 10:30:07;;;;;;;3.38;3.17;;;;;;;15.77;100.00;100855.28;5004876;28;20045;-74
2022/07/07 10:32:51;;;;;;;3.13;2.83;;;;;;;15.61;100.00;100849.41;5002688;28;20092;-74
2022/07/07 10:35:19;;;;;;;2.97;2.50;;;;;;;15.72;100.00;100859.25;4984586;28;20064;-74
2022/07/07 10:37:48;;;;;;;3.40;3.10;;;;;;;15.85;100.00;100850.22;5002107;28;20500;-74
2022/07/07 10:40:19;;;;;;;3.83;2.85;;;;;;;15.95;100.00;100859.16;4970756;28;20069;-72
2022/07/07 10:43:13;;;;;;;3.67;3.13;;;;;;;15.95;100.00;100855.66;5016897;28;20061;-73
2022/07/07 10:45:49;;;;;;;3.88;3.00;;;;;;;15.94;100.00;100854.81;5003587;28;20042;-72
2022/07/07 10:48:45;;;;;;;3.47;3.17;;;;;;;15.91;100.00;100857.72;4998785;28;20060;-73
2022/07/07 10:51:26;;;;;;;3.80;3.50;;;;;;;15.94;100.00;100860.13;5006541;28;20053;-74
2022/07/07 10:54:06;;;;;;;3.30;3.08;;;;;;;16.03;100.00;100863.88;5003996;28;20069;-74
2022/07/07 10:56:55;;;;;;;4.10;3.63;;;;;;;15.98;100.00;100863.38;4969095;28;20042;-74
2022/07/07 10:59:23;;;;;;;4.05;3.38;;;;;;;16.00;100.00;100866.78;5022264;28;20064;-74
2022/07/07 11:02:02;;;;;;;7.65;3.70;;;;;;;16.00;100.00;100864.13;4969343;28;20041;-74
2022/07/07 11:04:42;;;;;;;4.18;3.50;;;;;;;15.95;100.00;100864.47;5021572;28;20054;-73
2022/07/07 11:07:15;;;;;;;5.25;3.70;;;;;;;16.02;100.00;100864.81;5005015;28;20053;-74
2022/07/07 11:10:06;;;;;;;4.70;4.05;;;;;;;16.04;100.00;100859.41;4986028;28;20484;-74
2022/07/07 11:12:35;;;;;;;4.50;4.10;;;;;;;15.89;100.00;100856.13;4987756;28;20060;-74
2022/07/07 11:15:14;;;;;;;7.25;5.18;;;;;;;15.93;100.00;100863.72;4973537;28;20063;-74
2022/07/07 11:17:42;;;;;;;6.75;5.15;;;;;;;16.01;100.00;100859.66;4987763;28;20057;-75
2022/07/07 11:20:16;;;;;;;5.22;4.82;;;;;;;15.97;100.00;100863.50;4984470;28;20085;-74
2022/07/07 11:22:54;;;;;;;5.97;5.38;;;;;;;16.04;100.00;100868.22;5008583;28;20463;-74
2022/07/07 11:25:23;;;;;;;5.75;5.10;;;;;;;16.08;100.00;100856.41;4999156;28;20045;-74
2022/07/07 11:27:51;;;;;;;4.45;3.67;;;;;;;16.21;100.00;100861.59;4991964;28;20072;-73
2022/07/07 11:30:24;;;;;;;7.18;4.55;;;;;;;16.29;100.00;100863.63;5011603;28;20049;-73
2022/07/07 11:32:56;;;;;;;6.50;4.40;;;;;;;16.35;100.00;100857.84;5024761;28;20224;-73